Alamo, Texas
Current Conditions -  °F | °C
As of 3:53 AM on Monday 20 Oct 2014 (Local Time) from KMFE Reporting Station
Clear Clear  
Wind Chill: 22°   Ceiling: Unl
Heat Index: 22°   Visibility: 10mi
Dew Point: 19°   Wind: 3mph
Humidity: 84%   Direction: 30°NNE
Pressure: 29.92"   Gusts: NA
Location:  26.18°N, 98.12°W
Report Text: KMFE 200853Z AUTO 03003KT 10SM CLR 22/19 A2992 RMK AO2 SLP130 T02220194 58017
Loading
Personal Weather Stations






























Interactive Weather Map
Tropical Storm Tracking
New forecast layout! Learn more

10-Day Weather Forecast

Advertisements
Track Severe Weather on mobile